createdAt,value
2023-04-29T00:00:17.888Z,8.19
2023-04-29T00:02:48.497Z,8.20
2023-04-29T00:05:18.210Z,8.15
2023-04-29T00:07:47.539Z,8.11
2023-04-29T00:10:16.679Z,8.07
2023-04-29T00:12:45.810Z,8.05
2023-04-29T00:15:15.301Z,7.98
2023-04-29T00:17:45.540Z,8.00
2023-04-29T00:20:16.435Z,8.00
2023-04-29T00:22:45.522Z,8.02
2023-04-29T00:25:14.796Z,8.05
2023-04-29T00:27:43.876Z,8.00
2023-04-29T00:30:13.663Z,7.96
2023-04-29T00:32:43.804Z,7.96
2023-04-29T00:35:15.354Z,7.88
2023-04-29T00:37:44.453Z,7.96
2023-04-29T00:40:15.185Z,7.96
2023-04-29T00:42:44.332Z,7.98
2023-04-29T00:45:13.656Z,7.95
2023-04-29T00:47:43.004Z,7.85
2023-04-29T00:50:12.582Z,7.88
2023-04-29T00:52:44.149Z,7.84
2023-04-29T00:55:14.027Z,7.80
2023-04-29T00:57:43.569Z,7.88
2023-04-29T01:00:14.403Z,7.88
2023-04-29T01:02:43.599Z,7.86
2023-04-29T01:05:12.810Z,7.73
2023-04-29T01:07:53.859Z,7.74
2023-04-29T01:10:29.760Z,7.85
2023-04-29T01:13:07.232Z,7.84
2023-04-29T01:15:46.684Z,7.90
2023-04-29T01:18:23.559Z,7.86
2023-04-29T01:20:53.014Z,7.87
2023-04-29T01:23:29.971Z,7.74
2023-04-29T01:25:59.688Z,7.80
2023-04-29T01:28:52.050Z,7.82
2023-04-29T01:31:28.261Z,7.81
2023-04-29T01:34:09.069Z,7.74
2023-04-29T01:36:48.219Z,7.74
2023-04-29T01:39:28.103Z,7.79
2023-04-29T01:42:15.114Z,7.78
2023-04-29T01:44:44.938Z,7.87
2023-04-29T01:47:16.011Z,7.83
2023-04-29T01:49:51.234Z,7.79
2023-04-29T01:52:20.459Z,7.71
2023-04-29T01:55:11.044Z,7.74
2023-04-29T01:57:48.493Z,7.79
2023-04-29T02:00:34.000Z,7.75
2023-04-29T02:03:03.389Z,7.71
2023-04-29T02:05:40.787Z,7.71
2023-04-29T02:08:09.928Z,7.71
2023-04-29T02:10:54.182Z,7.70
2023-04-29T02:13:36.908Z,7.66
2023-04-29T02:16:10.338Z,7.68
2023-04-29T02:18:41.942Z,7.62
2023-04-29T02:21:12.210Z,7.59
2023-04-29T02:23:41.406Z,7.65
2023-04-29T02:26:12.007Z,7.56
2023-04-29T02:28:41.083Z,7.51
2023-04-29T02:31:10.893Z,7.64
2023-04-29T02:33:40.100Z,7.52
2023-04-29T02:36:11.763Z,7.69
2023-04-29T02:38:40.886Z,7.62
2023-04-29T02:41:11.255Z,7.68
2023-04-29T02:43:40.355Z,7.52
2023-04-29T02:46:09.529Z,7.62
2023-04-29T02:48:38.617Z,7.55
2023-04-29T02:51:08.088Z,7.55
2023-04-29T02:53:37.304Z,7.57
2023-04-29T02:56:06.877Z,7.61
2023-04-29T02:58:37.516Z,7.66
2023-04-29T03:01:07.143Z,7.57
2023-04-29T03:03:36.342Z,7.53
2023-04-29T03:06:05.684Z,7.56
2023-04-29T03:08:35.856Z,7.56
2023-04-29T03:11:04.965Z,7.62
2023-04-29T03:13:35.726Z,7.55
2023-04-29T03:16:05.101Z,7.54
2023-04-29T03:18:34.241Z,7.64
2023-04-29T03:21:04.688Z,7.61
2023-04-29T03:23:34.024Z,7.58
2023-04-29T03:26:04.332Z,7.60
2023-04-29T03:28:33.445Z,7.53
2023-04-29T03:31:04.408Z,7.61
2023-04-29T03:33:33.888Z,7.63
2023-04-29T03:36:03.270Z,7.66
2023-04-29T03:39:01.696Z,7.66
2023-04-29T03:41:31.874Z,7.62
2023-04-29T03:44:01.115Z,7.68
2023-04-29T03:46:33.368Z,7.59
2023-04-29T03:49:04.167Z,7.55
2023-04-29T03:51:33.376Z,7.50
2023-04-29T03:54:11.287Z,7.46
2023-04-29T03:56:41.065Z,7.49
2023-04-29T03:59:10.198Z,7.48
2023-04-29T04:01:42.287Z,7.41
2023-04-29T04:04:11.560Z,7.43
2023-04-29T04:06:51.138Z,7.47
2023-04-29T04:09:22.584Z,7.36
2023-04-29T04:11:51.678Z,7.41
2023-04-29T04:14:21.207Z,7.39
2023-04-29T04:16:51.714Z,7.50
2023-04-29T04:19:20.814Z,7.45
2023-04-29T04:21:49.984Z,7.62
2023-04-29T04:24:20.396Z,7.50
2023-04-29T04:26:50.221Z,7.50
2023-04-29T04:29:31.439Z,7.51
2023-04-29T04:32:06.272Z,7.49
2023-04-29T04:34:35.881Z,7.46
2023-04-29T04:37:06.428Z,7.46
2023-04-29T04:39:36.575Z,7.43
2023-04-29T04:42:05.848Z,7.40
2023-04-29T04:44:36.282Z,7.45
2023-04-29T04:47:11.528Z,7.30
2023-04-29T04:50:12.950Z,7.42
2023-04-29T04:52:42.662Z,7.37
2023-04-29T04:55:41.858Z,7.43
2023-04-29T04:58:11.009Z,7.41
2023-04-29T05:00:46.354Z,7.34
2023-04-29T05:03:17.472Z,7.39
2023-04-29T05:05:46.646Z,7.38
2023-04-29T05:08:15.757Z,7.47
2023-04-29T05:10:48.362Z,7.38
2023-04-29T05:13:17.514Z,7.39
2023-04-29T05:15:46.855Z,7.42
2023-04-29T05:18:21.731Z,7.52
2023-04-29T05:20:53.127Z,7.64
2023-04-29T05:23:23.092Z,7.89
2023-04-29T05:25:52.192Z,7.99
2023-04-29T05:28:21.487Z,8.27
2023-04-29T05:30:52.961Z,8.49
2023-04-29T05:33:24.149Z,8.35
2023-04-29T05:35:53.680Z,8.73
2023-04-29T05:38:28.743Z,8.79
2023-04-29T05:41:05.708Z,8.55
2023-04-29T05:43:43.458Z,9.03
2023-04-29T05:46:16.535Z,8.75
2023-04-29T05:48:47.085Z,9.42
2023-04-29T05:51:16.639Z,9.34
2023-04-29T05:53:46.094Z,9.22
2023-04-29T05:56:15.304Z,9.08
2023-04-29T05:58:44.394Z,9.68
2023-04-29T06:01:13.612Z,9.92
2023-04-29T06:03:42.973Z,10.06
2023-04-29T06:06:34.470Z,9.85
2023-04-29T06:09:29.327Z,9.99
2023-04-29T06:12:03.033Z,9.81
2023-04-29T06:14:32.338Z,9.85
2023-04-29T06:17:02.043Z,9.52
2023-04-29T06:19:32.607Z,10.18
2023-04-29T06:22:03.217Z,10.08
2023-04-29T06:24:33.470Z,9.87
2023-04-29T06:27:04.226Z,10.18
2023-04-29T06:29:33.817Z,10.03
2023-04-29T06:32:03.014Z,10.76
2023-04-29T06:34:32.478Z,11.21
2023-04-29T06:37:21.311Z,10.88
2023-04-29T06:40:13.958Z,10.76
2023-04-29T06:43:02.227Z,10.70
2023-04-29T06:45:51.762Z,10.34
2023-04-29T06:48:24.422Z,10.55
2023-04-29T06:50:54.372Z,10.86
2023-04-29T06:53:25.720Z,10.98
2023-04-29T06:55:54.835Z,11.41
2023-04-29T06:58:24.029Z,11.53
2023-04-29T07:00:53.791Z,11.62
2023-04-29T07:03:24.623Z,11.57
2023-04-29T07:05:53.776Z,11.63
2023-04-29T07:08:24.236Z,11.51
2023-04-29T07:10:57.118Z,11.30
2023-04-29T07:13:26.463Z,11.70
2023-04-29T07:15:55.497Z,11.75
2023-04-29T07:18:24.682Z,12.12
2023-04-29T07:20:55.708Z,12.02
2023-04-29T07:23:26.439Z,11.86
2023-04-29T07:25:55.529Z,12.79
2023-04-29T07:28:24.620Z,12.26
2023-04-29T07:30:55.335Z,12.23
2023-04-29T07:33:24.437Z,12.52
2023-04-29T07:35:53.720Z,12.10
2023-04-29T07:38:23.065Z,12.40
2023-04-29T07:40:53.647Z,12.38
2023-04-29T07:43:22.803Z,12.20
2023-04-29T07:45:52.198Z,12.61
2023-04-29T07:48:22.358Z,13.10
2023-04-29T07:50:51.489Z,12.45
2023-04-29T07:53:20.539Z,13.18
2023-04-29T07:55:49.603Z,12.77
2023-04-29T07:58:20.622Z,12.24
2023-04-29T08:00:49.770Z,12.97
2023-04-29T08:03:19.283Z,13.10
2023-04-29T08:05:48.603Z,13.19
2023-04-29T08:08:19.225Z,13.06
2023-04-29T08:10:48.294Z,12.94
2023-04-29T08:13:18.766Z,13.31
2023-04-29T08:15:47.874Z,13.05
2023-04-29T08:18:17.696Z,13.12
2023-04-29T08:20:48.080Z,12.95
2023-04-29T08:23:17.240Z,13.08
2023-04-29T08:25:51.801Z,13.67
2023-04-29T08:28:22.300Z,13.79
2023-04-29T08:30:51.469Z,14.31
2023-04-29T08:33:20.595Z,13.69
2023-04-29T08:35:49.922Z,14.05
2023-04-29T08:38:18.981Z,14.36
2023-04-29T08:40:48.346Z,13.83
2023-04-29T08:43:17.965Z,13.53
2023-04-29T08:45:51.004Z,13.50
2023-04-29T08:48:20.912Z,14.68
2023-04-29T08:50:50.120Z,14.89
2023-04-29T08:53:19.776Z,14.96
2023-04-29T08:55:49.537Z,15.18
2023-04-29T08:58:19.086Z,15.00
2023-04-29T09:00:50.355Z,14.73
2023-04-29T09:03:26.015Z,14.66
2023-04-29T09:05:56.780Z,14.54
2023-04-29T09:08:26.387Z,15.11
2023-04-29T09:10:57.325Z,14.38
2023-04-29T09:13:27.664Z,14.59
2023-04-29T09:15:58.733Z,14.78
2023-04-29T09:18:48.023Z,14.99
2023-04-29T09:21:21.245Z,14.99
2023-04-29T09:23:53.295Z,14.59
2023-04-29T09:26:24.082Z,15.18
2023-04-29T09:29:10.054Z,15.18
2023-04-29T09:31:41.215Z,14.99
2023-04-29T09:34:11.906Z,15.99
2023-04-29T09:36:44.902Z,15.48
2023-04-29T09:39:16.218Z,15.33
2023-04-29T09:42:02.737Z,14.84
2023-04-29T09:44:35.790Z,15.52
2023-04-29T09:47:07.665Z,16.32
2023-04-29T09:49:39.706Z,16.07
2023-04-29T09:52:10.607Z,15.74
2023-04-29T09:54:41.865Z,15.78
2023-04-29T09:57:12.113Z,15.58
2023-04-29T09:59:43.461Z,15.26
2023-04-29T10:02:17.705Z,15.98
2023-04-29T10:04:48.431Z,15.61
2023-04-29T10:07:19.091Z,15.49
2023-04-29T10:09:49.213Z,15.88
2023-04-29T10:12:19.925Z,15.35
2023-04-29T10:14:55.950Z,15.47
2023-04-29T10:17:37.957Z,15.55
2023-04-29T10:20:09.303Z,15.81
2023-04-29T10:22:47.880Z,15.45
2023-04-29T10:25:18.312Z,16.27
2023-04-29T10:27:48.963Z,16.33
2023-04-29T10:30:19.932Z,15.83
2023-04-29T10:32:52.908Z,16.30
2023-04-29T10:35:25.381Z,16.56
2023-04-29T10:37:57.042Z,16.40
2023-04-29T10:40:31.745Z,16.51
2023-04-29T10:43:01.314Z,16.06
2023-04-29T10:45:32.510Z,15.94
2023-04-29T10:48:13.462Z,16.01
2023-04-29T10:51:04.427Z,16.28
2023-04-29T10:53:33.581Z,15.37
2023-04-29T10:56:09.260Z,16.38
2023-04-29T10:58:44.313Z,16.16
2023-04-29T11:01:15.367Z,16.51
2023-04-29T11:03:54.898Z,15.46
2023-04-29T11:06:26.008Z,15.05
2023-04-29T11:09:14.519Z,16.29
2023-04-29T11:11:59.023Z,16.76
2023-04-29T11:14:30.921Z,17.58
2023-04-29T11:17:02.366Z,16.62
2023-04-29T11:19:37.379Z,16.96
2023-04-29T11:22:12.898Z,17.09
2023-04-29T11:24:54.004Z,17.19
2023-04-29T11:27:26.230Z,17.33
2023-04-29T11:29:58.802Z,17.02
2023-04-29T11:32:29.325Z,16.68
2023-04-29T11:35:09.366Z,17.21
2023-04-29T11:37:38.650Z,17.32
2023-04-29T11:40:09.215Z,17.28
2023-04-29T11:42:42.340Z,17.87
2023-04-29T11:45:12.263Z,16.93
2023-04-29T11:47:46.301Z,17.64
2023-04-29T11:50:19.727Z,17.21
2023-04-29T11:52:50.154Z,17.31
2023-04-29T11:55:19.713Z,17.41
2023-04-29T11:57:51.524Z,17.61
2023-04-29T12:00:20.984Z,18.25
2023-04-29T12:02:50.359Z,18.00
2023-04-29T12:05:21.173Z,18.01
2023-04-29T12:07:51.696Z,18.03
2023-04-29T12:10:21.459Z,18.12
2023-04-29T12:12:50.960Z,17.72
2023-04-29T12:15:20.334Z,17.14
2023-04-29T12:17:49.695Z,17.51
2023-04-29T12:20:20.220Z,16.73
2023-04-29T12:22:49.795Z,17.17
2023-04-29T12:25:20.672Z,17.72
2023-04-29T12:27:50.394Z,16.96
2023-04-29T12:30:21.251Z,16.73
2023-04-29T12:32:52.963Z,16.67
2023-04-29T12:35:24.156Z,16.90
2023-04-29T12:37:53.219Z,17.84
2023-04-29T12:40:23.071Z,18.19
2023-04-29T12:42:54.296Z,17.13
2023-04-29T12:45:31.976Z,17.27
2023-04-29T12:48:02.414Z,18.15
2023-04-29T12:50:35.935Z,18.85
2023-04-29T12:53:06.689Z,18.10
2023-04-29T12:55:36.047Z,17.90
2023-04-29T12:58:05.547Z,18.16
2023-04-29T13:00:37.307Z,18.58
2023-04-29T13:03:07.964Z,18.25
2023-04-29T13:05:38.697Z,17.03
2023-04-29T13:08:08.166Z,16.96
2023-04-29T13:10:37.726Z,17.10
2023-04-29T13:13:09.968Z,17.78
2023-04-29T13:15:39.562Z,16.51
2023-04-29T13:18:08.738Z,17.04
2023-04-29T13:20:42.074Z,17.66
2023-04-29T13:23:12.046Z,18.36
2023-04-29T13:25:41.167Z,18.14
2023-04-29T13:28:10.323Z,18.15
2023-04-29T13:30:39.446Z,18.30
2023-04-29T13:33:12.179Z,17.42
2023-04-29T13:35:43.637Z,18.08
2023-04-29T13:38:12.693Z,18.64
2023-04-29T13:40:46.495Z,18.40
2023-04-29T13:43:26.367Z,17.49
2023-04-29T13:46:04.207Z,17.76
2023-04-29T13:54:37.318Z,18.45
2023-04-29T14:02:21.360Z,17.42
2023-04-29T14:04:27.562Z,16.63
2023-04-29T14:06:58.702Z,17.81
2023-04-29T14:09:28.231Z,17.37
2023-04-29T14:11:57.641Z,17.20
2023-04-29T14:14:26.741Z,17.16
2023-04-29T14:16:55.859Z,17.25
2023-04-29T14:19:25.144Z,16.90
2023-04-29T14:21:54.191Z,17.28
2023-04-29T14:24:24.621Z,16.45
2023-04-29T14:26:54.009Z,17.20
2023-04-29T14:29:23.612Z,18.18
2023-04-29T14:31:52.851Z,16.54
2023-04-29T14:34:22.033Z,16.04
2023-04-29T14:36:51.169Z,15.51
2023-04-29T14:39:20.432Z,14.87
2023-04-29T14:41:50.968Z,14.97
2023-04-29T14:44:20.167Z,14.93
2023-04-29T14:46:49.294Z,14.54
2023-04-29T14:49:18.357Z,14.91
2023-04-29T14:51:47.530Z,14.75
2023-04-29T14:54:16.580Z,14.56
2023-04-29T14:56:45.734Z,14.83
2023-04-29T14:59:16.707Z,14.60
2023-04-29T15:01:46.068Z,14.58
2023-04-29T15:04:15.255Z,15.30
2023-04-29T15:06:44.457Z,14.66
2023-04-29T15:09:13.511Z,14.44
2023-04-29T15:11:42.683Z,14.00
2023-04-29T15:14:11.762Z,14.24
2023-04-29T15:16:42.325Z,14.11
2023-04-29T15:19:11.512Z,14.09
2023-04-29T15:21:40.630Z,14.79
2023-04-29T15:24:09.827Z,14.30
2023-04-29T15:26:39.170Z,13.72
2023-04-29T15:29:08.393Z,13.69
2023-04-29T15:31:37.728Z,13.65
2023-04-29T15:34:08.330Z,13.61
2023-04-29T15:36:37.562Z,14.58
2023-04-29T15:39:06.641Z,13.48
2023-04-29T15:41:36.344Z,13.89
2023-04-29T15:44:06.229Z,14.60
2023-04-29T15:46:35.335Z,14.21
2023-04-29T15:49:05.900Z,14.68
2023-04-29T15:51:36.339Z,15.00
2023-04-29T15:54:07.219Z,13.71
2023-04-29T15:56:36.397Z,13.61
2023-04-29T15:59:05.447Z,14.24
2023-04-29T16:01:36.306Z,14.63
2023-04-29T16:04:06.124Z,13.56
2023-04-29T16:06:36.815Z,13.53
2023-04-29T16:09:06.111Z,13.77
2023-04-29T16:11:35.465Z,14.14
2023-04-29T16:14:04.614Z,14.08
2023-04-29T16:16:33.994Z,14.56
2023-04-29T16:19:03.104Z,14.28
2023-04-29T16:21:32.837Z,13.29
2023-04-29T16:24:10.908Z,13.91
2023-04-29T16:26:40.465Z,13.64
2023-04-29T16:29:10.035Z,13.29
2023-04-29T16:31:39.265Z,13.80
2023-04-29T16:34:08.419Z,13.39
2023-04-29T16:36:37.601Z,13.77
2023-04-29T16:39:08.347Z,14.24
2023-04-29T16:41:37.452Z,14.56
2023-04-29T16:44:06.678Z,14.05
2023-04-29T16:46:36.077Z,13.77
2023-04-29T16:49:05.876Z,13.97
2023-04-29T16:51:35.037Z,14.00
2023-04-29T16:54:04.413Z,14.42
2023-04-29T16:56:34.868Z,13.63
2023-04-29T16:59:03.899Z,13.45
2023-04-29T17:01:33.142Z,13.50
2023-04-29T17:04:02.329Z,12.94
2023-04-29T17:06:32.288Z,12.86
2023-04-29T17:09:02.471Z,13.75
2023-04-29T17:11:31.712Z,13.29
2023-04-29T17:14:03.271Z,12.85
2023-04-29T17:16:33.140Z,13.00
2023-04-29T17:19:02.473Z,12.58
2023-04-29T17:21:32.424Z,12.90
2023-04-29T17:24:01.559Z,12.94
2023-04-29T17:26:31.525Z,12.82
2023-04-29T17:29:01.983Z,12.62
2023-04-29T17:31:44.952Z,12.63
2023-04-29T17:34:19.670Z,12.55
2023-04-29T17:36:49.075Z,12.21
2023-04-29T17:39:18.183Z,12.22
2023-04-29T17:41:47.504Z,12.34
2023-04-29T17:44:17.924Z,12.24
2023-04-29T17:46:47.060Z,12.37
2023-04-29T17:49:16.179Z,12.15
2023-04-29T17:51:45.350Z,11.40
2023-04-29T17:54:14.412Z,11.29
2023-04-29T17:56:43.511Z,11.26
2023-04-29T17:59:12.672Z,10.93
2023-04-29T18:01:43.190Z,10.94
2023-04-29T18:04:13.014Z,10.83
2023-04-29T18:06:42.218Z,10.79
2023-04-29T18:09:11.330Z,10.66
2023-04-29T18:11:40.364Z,10.69
2023-04-29T18:14:09.531Z,10.58
2023-04-29T18:16:38.979Z,10.63
2023-04-29T18:19:09.554Z,10.37
2023-04-29T18:21:38.650Z,10.32
2023-04-29T18:24:08.110Z,10.42
2023-04-29T18:26:37.233Z,10.14
2023-04-29T18:29:06.310Z,10.08
2023-04-29T18:31:35.404Z,9.99
2023-04-29T18:34:04.590Z,10.01
2023-04-29T18:36:35.064Z,9.83
2023-04-29T18:39:04.578Z,9.93
2023-04-29T18:41:33.695Z,9.86
2023-04-29T18:44:02.797Z,9.67
2023-04-29T18:46:31.898Z,9.56
2023-04-29T18:49:01.153Z,9.51
2023-04-29T18:51:30.278Z,9.50
2023-04-29T18:54:00.690Z,9.48
2023-04-29T18:56:29.981Z,9.32
2023-04-29T18:58:59.185Z,9.28
2023-04-29T19:01:28.394Z,9.16
2023-04-29T19:03:57.821Z,9.11
2023-04-29T19:06:26.970Z,9.01
2023-04-29T19:08:56.675Z,9.02
2023-04-29T19:11:27.439Z,8.89
2023-04-29T19:13:56.712Z,8.82
2023-04-29T19:16:26.199Z,8.74
2023-04-29T19:18:55.595Z,8.77
2023-04-29T19:21:24.721Z,8.67
2023-04-29T19:23:53.798Z,8.63
2023-04-29T19:26:22.908Z,8.59
2023-04-29T19:28:53.402Z,8.57
2023-04-29T19:31:24.941Z,8.44
2023-04-29T19:33:54.251Z,8.29
2023-04-29T19:36:23.577Z,8.38
2023-04-29T19:38:52.814Z,8.31
2023-04-29T19:41:21.974Z,8.25
2023-04-29T19:43:52.427Z,8.25
2023-04-29T19:46:21.710Z,8.14
2023-04-29T19:48:50.916Z,8.11
2023-04-29T19:51:20.966Z,8.16
2023-04-29T19:53:51.347Z,8.04
2023-04-29T19:56:20.663Z,7.98
2023-04-29T19:58:50.236Z,7.98
2023-04-29T20:01:20.715Z,7.96
2023-04-29T20:03:49.935Z,7.81
2023-04-29T20:06:19.705Z,7.93
2023-04-29T20:08:48.764Z,7.85
2023-04-29T20:11:17.852Z,7.71
2023-04-29T20:13:48.776Z,7.59
2023-04-29T20:16:23.830Z,7.59
2023-04-29T20:18:53.301Z,7.53
2023-04-29T20:21:22.482Z,7.44
2023-04-29T20:23:51.690Z,7.51
2023-04-29T20:26:20.978Z,7.45
2023-04-29T20:28:50.146Z,7.46
2023-04-29T20:31:20.668Z,7.46
2023-04-29T20:33:49.716Z,7.41
2023-04-29T20:36:18.799Z,7.25
2023-04-29T20:38:49.096Z,7.23
2023-04-29T20:41:18.211Z,7.29
2023-04-29T20:43:47.312Z,7.13
2023-04-29T20:46:16.771Z,7.14
2023-04-29T20:48:47.235Z,7.16
2023-04-29T20:51:16.859Z,7.13
2023-04-29T20:53:46.026Z,7.18
2023-04-29T20:56:16.090Z,7.11
2023-04-29T20:58:45.155Z,6.95
2023-04-29T21:01:14.292Z,7.02
2023-04-29T21:03:43.394Z,7.00
2023-04-29T21:06:13.784Z,6.82
2023-04-29T21:08:42.875Z,6.98
2023-04-29T21:11:12.030Z,6.82
2023-04-29T21:13:41.179Z,6.83
2023-04-29T21:16:11.214Z,6.65
2023-04-29T21:18:40.425Z,6.67
2023-04-29T21:21:10.215Z,6.68
2023-04-29T21:23:40.801Z,6.69
2023-04-29T21:26:09.875Z,6.62
2023-04-29T21:28:39.226Z,6.46
2023-04-29T21:31:09.595Z,6.47
2023-04-29T21:33:39.852Z,6.41
2023-04-29T21:36:09.089Z,6.42
2023-04-29T21:38:39.598Z,6.39
2023-04-29T21:41:15.244Z,6.34
2023-04-29T21:43:44.380Z,6.33
2023-04-29T21:46:13.810Z,6.20
2023-04-29T21:48:43.569Z,6.20
2023-04-29T21:51:12.810Z,6.25
2023-04-29T21:53:43.381Z,6.16
2023-04-29T21:56:12.657Z,6.02
2023-04-29T21:58:43.380Z,6.06
2023-04-29T22:01:26.510Z,6.05
2023-04-29T22:03:56.323Z,5.95
2023-04-29T22:06:25.806Z,5.91
2023-04-29T22:08:56.274Z,5.90
2023-04-29T22:11:25.502Z,5.87
2023-04-29T22:13:54.628Z,5.75
2023-04-29T22:16:24.412Z,5.75
2023-04-29T22:18:53.520Z,5.59
2023-04-29T22:21:22.624Z,5.52
2023-04-29T22:23:51.798Z,5.51
2023-04-29T22:26:25.436Z,5.45
2023-04-29T22:28:54.908Z,5.39
2023-04-29T22:31:23.973Z,5.43
2023-04-29T22:33:53.100Z,5.41
2023-04-29T22:36:22.170Z,5.32
2023-04-29T22:38:51.239Z,5.27
2023-04-29T22:41:21.640Z,5.28
2023-04-29T22:43:52.062Z,5.35
2023-04-29T22:46:21.146Z,5.30
2023-04-29T22:48:50.247Z,5.25
2023-04-29T22:51:19.947Z,5.21
2023-04-29T22:53:49.087Z,5.18
2023-04-29T22:56:18.162Z,5.16
2023-04-29T22:58:48.558Z,5.21
2023-04-29T23:01:17.679Z,5.15
2023-04-29T23:03:46.750Z,5.18
2023-04-29T23:06:15.892Z,5.08
2023-04-29T23:08:45.258Z,4.99
2023-04-29T23:11:14.414Z,4.95
2023-04-29T23:13:43.544Z,4.98
2023-04-29T23:16:14.028Z,5.00
2023-04-29T23:18:43.191Z,4.94
2023-04-29T23:21:12.305Z,4.91
2023-04-29T23:23:41.585Z,4.84
2023-04-29T23:26:10.664Z,4.80
2023-04-29T23:28:39.729Z,4.81
2023-04-29T23:31:08.861Z,4.73
2023-04-29T23:33:39.274Z,4.63
2023-04-29T23:36:08.426Z,4.71
2023-04-29T23:38:37.459Z,4.58
2023-04-29T23:41:06.631Z,4.58
2023-04-29T23:43:35.748Z,4.62
2023-04-29T23:46:04.873Z,4.51
2023-04-29T23:48:33.934Z,4.44
2023-04-29T23:51:04.362Z,4.48
2023-04-29T23:53:33.413Z,4.44
2023-04-29T23:56:02.544Z,4.41
2023-04-29T23:58:31.607Z,4.36
